createdAt,value
2018-10-01T00:03:54.387Z,11.21
2018-10-01T00:09:55.273Z,9.9
2018-10-01T00:13:55.938Z,11
2018-10-01T00:19:56.775Z,11.61
2018-10-01T00:23:57.613Z,11.26
2018-10-01T00:25:58.364Z,11.38
2018-10-01T00:29:59.094Z,10.89
2018-10-01T00:35:59.815Z,12.91
2018-10-01T00:40:00.622Z,11.16
2018-10-01T00:46:01.614Z,12.02
2018-10-01T00:50:02.374Z,10.11
2018-10-01T00:52:03.128Z,10.96
2018-10-01T00:56:03.871Z,9.88
2018-10-01T01:02:04.567Z,10.17
2018-10-01T01:06:05.258Z,9.79
2018-10-01T01:12:05.947Z,9.3
2018-10-01T01:16:06.784Z,8.4
2018-10-01T01:18:07.646Z,9.23
2018-10-01T01:22:08.444Z,9.14
2018-10-01T01:28:09.127Z,12.89
2018-10-01T01:32:10.005Z,13.17
2018-10-01T01:38:10.785Z,12.41
2018-10-01T01:42:11.705Z,11.13
2018-10-01T01:44:12.443Z,11.02
2018-10-01T01:48:13.083Z,11.5
2018-10-01T01:54:13.859Z,12.41
2018-10-01T01:58:14.667Z,13.06
2018-10-01T02:04:15.435Z,13.05
2018-10-01T02:08:16.097Z,13.15
2018-10-01T02:10:16.815Z,13.6
2018-10-01T02:14:17.587Z,13.29
2018-10-01T02:20:18.322Z,15.45
2018-10-01T02:24:19.002Z,14.94
2018-10-01T02:30:20.253Z,14.83
2018-10-01T02:34:21.130Z,14.27
2018-10-01T02:36:21.936Z,14.76
2018-10-01T02:40:22.688Z,13.5
2018-10-01T02:46:23.551Z,15.04
2018-10-01T02:50:24.280Z,13.77
2018-10-01T02:56:25.121Z,16.32
2018-10-01T03:00:26.231Z,16.08
2018-10-01T03:02:26.991Z,16.99
2018-10-01T03:06:27.843Z,16
2018-10-01T03:12:28.599Z,17.46
2018-10-01T03:16:29.386Z,18.51
2018-10-01T03:22:30.341Z,18.8
2018-10-01T03:26:31.088Z,18.17
2018-10-01T03:28:31.852Z,17.95
2018-10-01T03:32:32.608Z,16.33
2018-10-01T03:38:33.363Z,17.74
2018-10-01T03:42:34.076Z,17.68
2018-10-01T03:48:35.104Z,17.93
2018-10-01T03:52:35.789Z,16.39
2018-10-01T03:54:36.507Z,17.51
2018-10-01T03:58:37.469Z,16.15
2018-10-01T04:04:38.237Z,18.28
2018-10-01T04:08:39.049Z,18.23
2018-10-01T04:14:39.728Z,19.36
2018-10-01T04:18:40.406Z,17.83
2018-10-01T04:20:41.138Z,17.49
2018-10-01T04:24:41.891Z,16.58
2018-10-01T04:30:42.587Z,19.09
2018-10-01T04:34:43.499Z,19.57
2018-10-01T04:40:44.224Z,20.48
2018-10-01T04:44:44.873Z,18.67
2018-10-01T04:46:45.585Z,22.09
2018-10-01T04:50:46.382Z,20.26
2018-10-01T04:56:47.210Z,19.37
2018-10-01T05:00:48.003Z,17.36
2018-10-01T05:06:48.734Z,18.15
2018-10-01T05:10:49.464Z,17.32
2018-10-01T05:12:50.191Z,17.46
2018-10-01T05:16:51.094Z,17.7
2018-10-01T05:22:51.898Z,17.87
2018-10-01T05:26:52.686Z,17.51
2018-10-01T05:32:53.402Z,16.53
2018-10-01T05:38:54.335Z,16.16
2018-10-01T05:42:55.213Z,15.08
2018-10-01T05:48:56.121Z,16.2
2018-10-01T05:52:56.962Z,14.7
2018-10-01T05:58:57.708Z,15.59
2018-10-01T06:04:58.634Z,17.97
2018-10-01T06:08:59.476Z,20
2018-10-01T06:15:00.244Z,20.07
2018-10-01T06:19:01.058Z,21.42
2018-10-01T06:25:01.889Z,22.73
2018-10-01T06:31:02.587Z,21.41
2018-10-01T06:35:03.339Z,20.27
2018-10-01T06:41:04.156Z,20.88
2018-10-01T06:45:04.855Z,20.38
2018-10-01T06:51:05.654Z,22.51
2018-10-01T06:57:06.556Z,22.92
2018-10-01T07:01:07.484Z,22.47
2018-10-01T07:07:08.371Z,26.67
2018-10-01T07:11:09.420Z,23.5
2018-10-01T07:17:10.261Z,24.95
2018-10-01T07:23:11.085Z,23.94
2018-10-01T07:27:11.745Z,23.77
2018-10-01T07:33:12.526Z,22.96
2018-10-01T07:37:13.366Z,23.63
2018-10-01T07:43:14.192Z,23.53
2018-10-01T07:49:15.089Z,24.56
2018-10-01T07:53:15.814Z,24.4
2018-10-01T07:59:16.640Z,18.25
2018-10-01T08:03:17.345Z,18.74
2018-10-01T08:09:18.090Z,18.44
2018-10-01T08:15:19.103Z,25.52
2018-10-01T08:19:20.005Z,22.45
2018-10-01T08:25:20.920Z,25.25
2018-10-01T08:29:21.825Z,24.6
2018-10-01T08:35:22.423Z,22.85
2018-10-01T08:41:23.352Z,25.66
2018-10-01T08:45:24.554Z,27.12
2018-10-01T08:51:25.192Z,25.79
2018-10-01T08:55:25.955Z,23.75
2018-10-01T08:57:26.686Z,16.56
2018-10-01T09:01:27.440Z,16.64
2018-10-01T09:07:28.188Z,14
2018-10-01T09:11:28.984Z,13.47
2018-10-01T09:17:29.797Z,19.7
2018-10-01T09:21:30.602Z,18.76
2018-10-01T09:23:32.668Z,20.45
2018-10-01T09:27:33.500Z,20.9
2018-10-01T09:33:34.315Z,18.46
2018-10-01T09:37:35.129Z,18.36
2018-10-01T09:43:36.011Z,15.05
2018-10-01T09:47:36.791Z,13.87
2018-10-01T09:49:38.455Z,15.19
2018-10-01T09:53:39.320Z,14.9
2018-10-01T09:59:40.164Z,13.24
2018-10-01T10:03:41.262Z,13.71
2018-10-01T10:09:42.109Z,15.75
2018-10-01T10:13:42.796Z,13.8
2018-10-01T10:15:43.560Z,14.47
2018-10-01T10:19:44.281Z,14.06
2018-10-01T10:25:45.032Z,12.91
2018-10-01T10:29:45.712Z,12
2018-10-01T10:35:46.461Z,12.75
2018-10-01T10:39:47.276Z,12.51
2018-10-01T10:41:48.017Z,16.51
2018-10-01T10:45:48.741Z,14.77
2018-10-01T10:51:49.517Z,15.72
2018-10-01T10:55:50.164Z,14.85
2018-10-01T11:01:50.916Z,16.41
2018-10-01T11:05:51.809Z,16.39
2018-10-01T11:07:52.692Z,17.45
2018-10-01T11:11:53.419Z,15.46
2018-10-01T11:17:54.201Z,16.19
2018-10-01T11:21:55.279Z,16.21
2018-10-01T11:27:56.173Z,21.53
2018-10-01T11:31:57.080Z,21.31
2018-10-01T11:33:57.671Z,25.12
2018-10-01T11:37:58.387Z,25.01
2018-10-01T11:43:59.167Z,32.98
2018-10-01T11:47:59.935Z,32.06
2018-10-01T11:54:00.708Z,39.1
2018-10-01T11:58:01.627Z,38.2
2018-10-01T12:00:02.852Z,36.74
2018-10-01T12:04:03.160Z,36.34
2018-10-01T12:10:03.922Z,43.48
2018-10-01T12:14:04.613Z,42.46
2018-10-01T12:20:05.344Z,33.55
2018-10-01T12:24:06.155Z,33.71
2018-10-01T12:26:06.789Z,35.39
2018-10-01T12:30:07.530Z,34.72
2018-10-01T12:36:08.214Z,38.92
2018-10-01T12:40:08.945Z,36.37
2018-10-01T12:46:09.656Z,12.87
2018-10-01T12:50:10.502Z,11.71
2018-10-01T12:52:11.265Z,10.3
2018-10-01T12:56:12.435Z,9.18
2018-10-01T13:02:13.272Z,8.4
2018-10-01T13:06:14.057Z,7.2
2018-10-01T13:12:15.263Z,6.78
2018-10-01T13:16:16.568Z,7.75
2018-10-01T13:18:17.659Z,7.81
2018-10-01T13:22:18.200Z,6.25
2018-10-01T13:28:20.101Z,6.81
2018-10-01T13:32:21.351Z,6.56
2018-10-01T13:38:23.159Z,5.96
2018-10-01T13:42:23.925Z,5.43
2018-10-01T13:44:24.740Z,6.65
2018-10-01T13:48:25.603Z,6.81
2018-10-01T13:54:26.287Z,7.37
2018-10-01T13:58:27.089Z,7.28
2018-10-01T14:04:27.727Z,7.45
2018-10-01T14:08:28.419Z,7.78
2018-10-01T14:10:29.526Z,9.6
2018-10-01T14:14:30.378Z,6.38
2018-10-01T14:20:31.321Z,7.27
2018-10-01T14:24:32.428Z,6.47
2018-10-01T14:30:33.358Z,7.56
2018-10-01T14:34:34.034Z,6
2018-10-01T14:36:34.835Z,7.6
2018-10-01T14:40:35.604Z,6.72
2018-10-01T14:46:36.471Z,6.86
2018-10-01T14:50:37.406Z,6.95
2018-10-01T14:56:38.237Z,7.64
2018-10-01T15:00:39.166Z,7.34
2018-10-01T15:02:39.613Z,7.43
2018-10-01T15:06:40.457Z,7.37
2018-10-01T15:12:41.289Z,7.81
2018-10-01T15:16:42.205Z,8.07
2018-10-01T15:22:43.501Z,8.5
2018-10-01T15:26:44.307Z,7.07
2018-10-01T15:28:45.057Z,8.15
2018-10-01T15:32:45.969Z,7.03
2018-10-01T15:38:46.651Z,7.97
2018-10-01T15:42:47.467Z,9.29
2018-10-01T15:48:48.233Z,8.58
2018-10-01T15:52:48.997Z,10.92
2018-10-01T15:54:49.634Z,8.89
2018-10-01T15:58:50.305Z,8.13
2018-10-01T16:04:51.067Z,8.88
2018-10-01T16:08:51.803Z,8.02
2018-10-01T16:14:52.736Z,11.25
2018-10-01T16:18:53.512Z,9.31
2018-10-01T16:20:56.335Z,8.84
2018-10-01T16:24:57.071Z,9.66
2018-10-01T16:30:58.004Z,9.43
2018-10-01T16:34:58.722Z,9.73
2018-10-01T16:40:59.465Z,9.14
2018-10-01T16:40:59.481Z,9.14
2018-10-01T16:45:00.146Z,14.24
2018-10-01T16:47:00.923Z,9.83
2018-10-01T16:51:01.738Z,10.04
2018-10-01T16:57:02.424Z,11.69
2018-10-01T17:01:03.387Z,11.57
2018-10-01T17:07:05.214Z,12.06
2018-10-01T17:11:05.910Z,11.47
2018-10-01T17:13:06.654Z,10.95
2018-10-01T17:17:07.329Z,11.17
2018-10-01T17:23:08.074Z,12.8
2018-10-01T17:27:08.737Z,12.36
2018-10-01T17:33:09.709Z,12.49
2018-10-01T17:37:10.516Z,12.5
2018-10-01T17:39:11.115Z,13.16
2018-10-01T17:43:11.968Z,13.71
2018-10-01T17:49:12.750Z,12.44
2018-10-01T17:53:13.571Z,12.11
2018-10-01T17:59:14.222Z,10.59
2018-10-01T18:03:15.040Z,10.54
2018-10-01T18:05:15.703Z,10
2018-10-01T18:09:16.523Z,9.02
2018-10-01T18:15:17.611Z,8.09
2018-10-01T18:19:18.331Z,7.52
2018-10-01T18:25:19.118Z,6.54
2018-10-01T18:31:19.857Z,6.56
2018-10-01T18:35:20.621Z,6.6
2018-10-01T18:41:21.839Z,7.79
2018-10-01T18:45:22.774Z,6.87
2018-10-01T18:51:23.476Z,5.49
2018-10-01T18:57:24.343Z,4.24
2018-10-01T19:01:25.052Z,3.95
2018-10-01T19:07:25.908Z,7.77
2018-10-01T19:11:26.849Z,5.61
2018-10-01T19:17:27.794Z,2.71
2018-10-01T19:23:29.486Z,2.63
2018-10-01T19:27:30.571Z,2.29
2018-10-01T19:33:32.674Z,1.61
2018-10-01T19:37:33.550Z,1.08
2018-10-01T19:43:34.328Z,2.73
2018-10-01T19:49:35.627Z,2.27
2018-10-01T19:53:36.588Z,1.65
2018-10-01T19:59:37.361Z,7.72
2018-10-01T20:03:38.862Z,9.91
2018-10-01T20:15:42.566Z,2.83
2018-10-01T20:15:42.738Z,2.8
2018-10-01T20:19:44.515Z,3.24
2018-10-01T20:25:46.160Z,5.35
2018-10-01T20:29:47.171Z,4.28
2018-10-01T20:35:49.188Z,4.8
2018-10-01T20:39:49.953Z,3.46
2018-10-01T20:41:51.140Z,3.15
2018-10-01T20:45:53.017Z,3
2018-10-01T20:51:53.840Z,3.6
2018-10-01T20:55:55.312Z,3.42
2018-10-01T21:01:56.053Z,4.57
2018-10-01T21:05:56.879Z,4.89
2018-10-01T21:07:57.673Z,6.92
2018-10-01T21:11:58.432Z,5.63
2018-10-01T21:17:59.246Z,3.89
2018-10-01T21:22:00.148Z,3.03
2018-10-01T21:28:01.005Z,3.15
2018-10-01T21:32:01.933Z,3
2018-10-01T21:34:02.676Z,3.65
2018-10-01T21:38:03.435Z,2.92
2018-10-01T21:44:04.160Z,2.78
2018-10-01T21:48:04.913Z,3.21
2018-10-01T21:54:05.668Z,3.32
2018-10-01T22:00:06.402Z,4.26
2018-10-01T22:10:13.970Z,2.86
2018-10-01T22:10:14.370Z,4.48
2018-10-01T22:14:16.475Z,2.81
2018-10-01T22:20:18.439Z,2.43
2018-10-01T22:24:19.177Z,1.94
2018-10-01T22:26:19.914Z,2.87
2018-10-01T22:30:21.058Z,2.39
2018-10-01T22:36:22.145Z,2.77
2018-10-01T22:40:22.866Z,3.04
2018-10-01T22:46:23.760Z,4.32
2018-10-01T22:50:24.576Z,3.39
2018-10-01T22:52:25.389Z,4.21
2018-10-01T22:56:26.187Z,3.27
2018-10-01T23:02:27.953Z,3.37
2018-10-01T23:06:28.659Z,3.18
2018-10-01T23:12:29.518Z,3.73
2018-10-01T23:16:30.203Z,3.75
2018-10-01T23:18:30.911Z,4.02
2018-10-01T23:22:31.608Z,3.3
2018-10-01T23:28:32.424Z,4.34
2018-10-01T23:32:33.124Z,3.8
2018-10-01T23:38:34.097Z,4.02
2018-10-01T23:42:34.671Z,4.58
2018-10-01T23:44:35.544Z,4.69
2018-10-01T23:48:36.305Z,4.53
2018-10-01T23:54:37.049Z,4.31
2018-10-01T23:58:37.866Z,3.57
